createdAt,value
2023-10-02T00:02:41.043Z,1.22
2023-10-02T00:05:10.513Z,1.10
2023-10-02T00:07:44.353Z,0.99
2023-10-02T00:10:13.893Z,1.04
2023-10-02T00:12:44.383Z,1.05
2023-10-02T00:15:14.667Z,1.02
2023-10-02T00:17:46.734Z,0.92
2023-10-02T00:20:21.313Z,0.84
2023-10-02T00:22:52.380Z,0.78
2023-10-02T00:25:24.566Z,0.95
2023-10-02T00:27:56.510Z,0.88
2023-10-02T00:30:32.572Z,0.85
2023-10-02T00:33:04.555Z,0.84
2023-10-02T00:35:51.526Z,0.81
2023-10-02T00:38:20.312Z,0.89
2023-10-02T00:40:49.335Z,0.90
2023-10-02T00:43:36.240Z,0.90
2023-10-02T00:46:05.815Z,0.91
2023-10-02T00:48:35.632Z,0.82
2023-10-02T00:51:08.324Z,0.89
2023-10-02T00:54:02.204Z,0.70
2023-10-02T00:56:31.139Z,0.48
2023-10-02T00:59:03.055Z,0.74
2023-10-02T01:01:34.436Z,0.69
2023-10-02T01:04:26.086Z,0.84
2023-10-02T01:07:07.261Z,0.74
2023-10-02T01:09:36.870Z,0.79
2023-10-02T01:12:12.596Z,0.71
2023-10-02T01:14:53.149Z,0.59
2023-10-02T01:17:23.637Z,0.65
2023-10-02T01:19:57.795Z,0.78
2023-10-02T01:22:29.546Z,0.64
2023-10-02T01:25:18.466Z,0.79
2023-10-02T01:27:52.795Z,0.70
2023-10-02T01:30:26.244Z,0.87
2023-10-02T01:33:13.999Z,0.80
2023-10-02T01:35:50.912Z,0.99
2023-10-02T01:38:36.866Z,1.00
2023-10-02T01:41:11.899Z,1.12
2023-10-02T01:43:46.343Z,1.20
2023-10-02T01:46:20.819Z,1.22
2023-10-02T01:48:52.772Z,1.19
2023-10-02T01:51:23.630Z,1.47
2023-10-02T01:53:58.591Z,1.46
2023-10-02T01:56:29.554Z,1.49
2023-10-02T01:59:13.700Z,1.61
2023-10-02T02:02:09.303Z,1.65
2023-10-02T02:04:38.476Z,1.85
2023-10-02T02:07:10.594Z,1.85
2023-10-02T02:09:39.695Z,1.99
2023-10-02T02:12:12.650Z,2.17
2023-10-02T02:14:53.964Z,2.16
2023-10-02T02:17:29.230Z,1.92
2023-10-02T02:20:12.902Z,2.42
2023-10-02T02:22:44.267Z,2.52
2023-10-02T02:25:14.310Z,2.51
2023-10-02T02:27:47.829Z,2.72
2023-10-02T02:30:21.291Z,2.77
2023-10-02T02:32:56.516Z,2.91
2023-10-02T02:35:25.350Z,3.10
2023-10-02T02:37:54.117Z,3.15
2023-10-02T02:40:27.452Z,3.27
2023-10-02T02:42:58.640Z,3.41
2023-10-02T02:45:31.586Z,3.50
2023-10-02T02:48:06.766Z,3.62
2023-10-02T02:50:45.675Z,3.60
2023-10-02T02:53:24.525Z,3.73
2023-10-02T02:56:17.221Z,4.03
2023-10-02T02:58:53.853Z,3.92
2023-10-02T03:01:26.985Z,4.17
2023-10-02T03:03:57.968Z,4.08
2023-10-02T03:06:27.077Z,4.18
2023-10-02T03:08:59.829Z,4.43
2023-10-02T03:11:31.521Z,4.50
2023-10-02T03:14:21.265Z,4.53
2023-10-02T03:16:53.384Z,4.71
2023-10-02T03:19:24.615Z,4.76
2023-10-02T03:22:04.642Z,4.93
2023-10-02T03:24:35.595Z,4.94
2023-10-02T03:27:04.570Z,5.09
2023-10-02T03:29:34.023Z,5.18
2023-10-02T03:32:03.382Z,5.12
2023-10-02T03:34:34.369Z,5.23
2023-10-02T03:37:13.831Z,5.40
2023-10-02T03:40:02.059Z,5.64
2023-10-02T03:42:33.603Z,5.73
2023-10-02T03:45:09.230Z,5.71
2023-10-02T03:47:38.173Z,5.89
2023-10-02T03:50:14.770Z,5.84
2023-10-02T03:52:47.657Z,6.17
2023-10-02T03:55:20.283Z,6.28
2023-10-02T03:57:49.516Z,6.27
2023-10-02T04:00:29.500Z,6.38
2023-10-02T04:03:01.429Z,6.56
2023-10-02T04:05:34.848Z,6.63
2023-10-02T04:08:16.848Z,6.77
2023-10-02T04:11:00.330Z,6.94
2023-10-02T04:13:35.593Z,7.08
2023-10-02T04:16:24.275Z,7.23
2023-10-02T04:19:04.733Z,7.22
2023-10-02T04:21:35.829Z,7.33
2023-10-02T04:24:11.333Z,7.54
2023-10-02T04:26:43.671Z,7.69
2023-10-02T04:29:17.180Z,7.80
2023-10-02T04:32:06.032Z,7.82
2023-10-02T04:34:38.654Z,8.11
2023-10-02T04:37:22.272Z,8.08
2023-10-02T04:40:00.753Z,8.21
2023-10-02T04:42:52.530Z,8.32
2023-10-02T04:45:27.590Z,8.59
2023-10-02T04:47:57.016Z,8.66
2023-10-02T04:50:26.337Z,8.74
2023-10-02T04:53:21.939Z,8.83
2023-10-02T04:56:09.239Z,8.91
2023-10-02T04:58:58.558Z,8.96
2023-10-02T05:01:36.684Z,9.22
2023-10-02T05:04:06.462Z,9.41
2023-10-02T05:06:46.374Z,9.61
2023-10-02T05:09:19.994Z,9.95
2023-10-02T05:12:01.028Z,10.13
2023-10-02T05:14:36.232Z,9.97
2023-10-02T05:17:24.442Z,10.55
2023-10-02T05:20:02.981Z,10.78
2023-10-02T05:22:34.033Z,11.02
2023-10-02T05:25:06.475Z,11.12
2023-10-02T05:27:40.229Z,11.34
2023-10-02T05:30:14.650Z,11.51
2023-10-02T05:32:43.709Z,11.63
2023-10-02T05:35:16.179Z,11.63
2023-10-02T05:37:50.792Z,11.77
2023-10-02T05:40:21.170Z,11.86
2023-10-02T05:43:01.651Z,12.13
2023-10-02T05:45:46.910Z,12.25
2023-10-02T05:48:38.188Z,12.44
2023-10-02T05:51:17.513Z,12.52
2023-10-02T05:53:55.359Z,12.60
2023-10-02T05:56:27.384Z,12.70
2023-10-02T05:58:57.529Z,12.74
2023-10-02T06:01:28.601Z,12.93
2023-10-02T06:04:01.524Z,13.00
2023-10-02T06:06:38.090Z,13.16
2023-10-02T06:09:15.932Z,12.94
2023-10-02T06:12:07.402Z,13.29
2023-10-02T06:14:41.436Z,13.48
2023-10-02T06:17:16.774Z,13.72
2023-10-02T06:19:46.116Z,13.82
2023-10-02T06:22:15.592Z,13.60
2023-10-02T06:24:47.810Z,13.92
2023-10-02T06:27:17.538Z,14.11
2023-10-02T06:29:47.371Z,14.13
2023-10-02T06:32:21.529Z,14.29
2023-10-02T06:34:52.899Z,14.07
2023-10-02T06:37:37.860Z,14.39
2023-10-02T06:40:16.491Z,14.57
2023-10-02T06:42:53.053Z,14.69
2023-10-02T06:45:27.637Z,14.66
2023-10-02T06:47:58.657Z,14.76
2023-10-02T06:50:32.940Z,14.87
2023-10-02T06:53:01.932Z,14.86
2023-10-02T06:55:34.268Z,15.05
2023-10-02T06:58:04.412Z,15.20
2023-10-02T07:00:56.780Z,15.22
2023-10-02T07:03:26.948Z,15.17
2023-10-02T07:05:55.982Z,15.21
2023-10-02T07:08:28.717Z,15.35
2023-10-02T07:11:00.979Z,15.50
2023-10-02T07:13:29.920Z,15.38
2023-10-02T07:15:59.017Z,15.53
2023-10-02T07:18:40.678Z,15.64
2023-10-02T07:21:09.357Z,15.73
2023-10-02T07:23:39.936Z,15.68
2023-10-02T07:26:40.397Z,15.78
2023-10-02T07:29:09.575Z,15.88
2023-10-02T07:31:38.804Z,15.81
2023-10-02T07:34:10.012Z,15.98
2023-10-02T07:36:46.741Z,15.98
2023-10-02T07:39:34.498Z,15.93
2023-10-02T07:42:09.772Z,16.00
2023-10-02T07:44:43.548Z,16.07
2023-10-02T07:47:13.280Z,16.14
2023-10-02T07:49:42.649Z,16.07
2023-10-02T07:52:13.731Z,16.13
2023-10-02T07:54:50.448Z,16.12
2023-10-02T07:57:20.037Z,16.26
2023-10-02T07:59:49.425Z,16.18
2023-10-02T08:02:25.221Z,16.39
2023-10-02T08:04:54.771Z,16.39
2023-10-02T08:07:32.227Z,16.42
2023-10-02T08:10:10.092Z,16.41
2023-10-02T08:12:39.050Z,16.43
2023-10-02T08:15:34.780Z,16.36
2023-10-02T08:18:06.214Z,16.33
2023-10-02T08:20:39.849Z,16.25
2023-10-02T08:23:25.669Z,16.34
2023-10-02T08:28:36.186Z,16.41
2023-10-02T08:31:05.232Z,16.47
2023-10-02T08:33:39.326Z,16.51
2023-10-02T08:36:24.166Z,16.29
2023-10-02T08:41:31.064Z,16.67
2023-10-02T08:44:02.576Z,16.71
2023-10-02T08:46:33.068Z,16.62
2023-10-02T08:49:05.706Z,16.60
2023-10-02T08:51:40.423Z,16.67
2023-10-02T08:54:09.181Z,16.52
2023-10-02T08:56:48.308Z,16.43
2023-10-02T08:59:28.648Z,16.52
2023-10-02T09:02:13.647Z,16.42
2023-10-02T09:04:55.810Z,16.44
2023-10-02T09:07:47.415Z,16.39
2023-10-02T09:10:27.575Z,16.43
2023-10-02T09:13:16.743Z,16.36
2023-10-02T09:15:57.875Z,16.41
2023-10-02T09:18:58.151Z,16.28
2023-10-02T09:21:41.003Z,16.24
2023-10-02T09:24:29.553Z,16.09
2023-10-02T09:27:18.252Z,16.11
2023-10-02T09:29:47.831Z,16.11
2023-10-02T09:32:27.796Z,16.10
2023-10-02T09:35:28.743Z,16.22
2023-10-02T09:38:07.463Z,16.22
2023-10-02T09:40:58.611Z,16.20
2023-10-02T09:43:39.480Z,16.24
2023-10-02T09:46:24.698Z,16.12
2023-10-02T09:48:53.667Z,16.18
2023-10-02T09:51:40.690Z,16.15
2023-10-02T09:54:15.218Z,16.15
2023-10-02T09:57:07.707Z,16.13
2023-10-02T09:59:49.319Z,16.12
2023-10-02T10:02:20.687Z,16.02
2023-10-02T10:05:04.532Z,16.06
2023-10-02T10:07:54.077Z,16.06
2023-10-02T10:10:49.101Z,15.96
2023-10-02T10:13:48.239Z,15.97
2023-10-02T10:16:25.362Z,15.95
2023-10-02T10:19:18.266Z,15.93
2023-10-02T10:22:06.419Z,15.89
2023-10-02T10:24:58.323Z,15.79
2023-10-02T10:27:45.643Z,15.84
2023-10-02T10:30:27.020Z,15.81
2023-10-02T10:33:25.737Z,15.80
2023-10-02T10:35:57.411Z,15.79
2023-10-02T10:38:51.452Z,15.82
2023-10-02T10:41:37.207Z,15.74
2023-10-02T10:44:15.146Z,15.65
2023-10-02T10:46:54.260Z,15.62
2023-10-02T10:49:28.128Z,15.34
2023-10-02T10:52:22.630Z,15.55
2023-10-02T10:54:56.879Z,15.52
2023-10-02T10:57:31.450Z,15.54
2023-10-02T11:00:26.908Z,15.60
2023-10-02T11:03:17.146Z,15.56
2023-10-02T11:05:49.446Z,15.47
2023-10-02T11:08:27.743Z,15.40
2023-10-02T11:11:08.079Z,15.47
2023-10-02T11:14:03.488Z,15.29
2023-10-02T11:16:38.432Z,15.30
2023-10-02T11:19:27.348Z,15.34
2023-10-02T11:22:24.559Z,15.28
2023-10-02T11:24:57.062Z,15.22
2023-10-02T11:27:30.993Z,15.16
2023-10-02T11:30:09.196Z,15.08
2023-10-02T11:33:00.772Z,15.02
2023-10-02T11:35:45.480Z,14.83
2023-10-02T11:38:20.181Z,14.78
2023-10-02T11:40:49.529Z,14.76
2023-10-02T11:43:22.227Z,14.73
2023-10-02T11:45:56.910Z,14.54
2023-10-02T11:48:30.359Z,14.47
2023-10-02T11:50:59.731Z,14.48
2023-10-02T11:53:32.030Z,14.39
2023-10-02T11:56:04.266Z,14.26
2023-10-02T11:58:36.451Z,14.16
2023-10-02T12:01:11.943Z,13.96
2023-10-02T12:03:42.029Z,13.83
2023-10-02T12:06:21.289Z,13.74
2023-10-02T12:09:03.437Z,13.65
2023-10-02T12:11:36.166Z,13.45
2023-10-02T12:14:05.337Z,13.41
2023-10-02T12:16:39.382Z,12.96
2023-10-02T12:19:10.750Z,13.07
2023-10-02T12:21:48.498Z,12.89
2023-10-02T12:24:23.867Z,12.91
2023-10-02T12:26:54.202Z,12.47
2023-10-02T12:29:26.801Z,12.60
2023-10-02T12:32:02.727Z,12.39
2023-10-02T12:34:35.622Z,12.30
2023-10-02T12:37:06.129Z,12.23
2023-10-02T12:39:35.371Z,11.99
2023-10-02T12:42:09.788Z,11.82
2023-10-02T12:44:42.929Z,11.60
2023-10-02T12:47:12.311Z,11.57
2023-10-02T12:49:47.268Z,11.33
2023-10-02T12:52:16.930Z,11.25
2023-10-02T12:54:46.896Z,11.22
2023-10-02T12:57:21.891Z,11.14
2023-10-02T12:59:53.499Z,11.01
2023-10-02T13:02:22.442Z,10.73
2023-10-02T13:05:06.003Z,10.74
2023-10-02T13:07:35.693Z,10.50
2023-10-02T13:10:06.770Z,10.48
2023-10-02T13:12:36.846Z,10.38
2023-10-02T13:15:08.224Z,10.21
2023-10-02T13:17:44.525Z,10.05
2023-10-02T13:20:22.883Z,9.95
2023-10-02T13:22:56.018Z,9.95
2023-10-02T13:25:31.053Z,9.79
2023-10-02T13:28:01.254Z,9.43
2023-10-02T13:30:33.298Z,9.61
2023-10-02T13:33:02.855Z,9.59
2023-10-02T13:35:42.034Z,9.43
2023-10-02T13:38:12.369Z,9.26
2023-10-02T13:40:44.557Z,9.32
2023-10-02T13:43:34.155Z,9.07
2023-10-02T13:46:10.474Z,9.14
2023-10-02T13:48:42.865Z,8.67
2023-10-02T13:51:23.788Z,8.88
2023-10-02T13:53:55.835Z,8.87
2023-10-02T13:56:35.076Z,8.77
2023-10-02T13:59:07.062Z,8.65
2023-10-02T14:01:39.064Z,8.64
2023-10-02T14:04:08.847Z,8.60
2023-10-02T14:06:41.000Z,8.63
2023-10-02T14:09:12.366Z,8.58
2023-10-02T14:11:45.002Z,8.45
2023-10-02T14:14:15.380Z,8.31
2023-10-02T14:16:52.857Z,8.28
2023-10-02T14:19:27.287Z,8.28
2023-10-02T14:21:57.100Z,8.11
2023-10-02T14:24:26.582Z,8.14
2023-10-02T14:26:55.993Z,7.72
2023-10-02T14:29:25.381Z,8.10
2023-10-02T14:31:58.337Z,8.04
2023-10-02T14:34:32.209Z,7.92
2023-10-02T14:37:24.714Z,7.91
2023-10-02T14:39:56.363Z,7.75
2023-10-02T14:42:28.478Z,7.70
2023-10-02T14:45:01.187Z,7.57
2023-10-02T14:47:33.302Z,7.53
2023-10-02T14:50:08.719Z,7.53
2023-10-02T14:52:37.883Z,7.44
2023-10-02T14:55:10.782Z,7.36
2023-10-02T14:57:40.046Z,7.44
2023-10-02T15:00:13.039Z,7.37
2023-10-02T15:02:47.663Z,7.26
2023-10-02T15:05:20.643Z,7.08
2023-10-02T15:07:58.433Z,7.27
2023-10-02T15:10:39.419Z,7.08
2023-10-02T15:13:08.792Z,7.14
2023-10-02T15:15:41.499Z,6.82
2023-10-02T15:18:16.144Z,6.58
2023-10-02T15:20:45.396Z,6.56
2023-10-02T15:23:15.462Z,6.81
2023-10-02T15:25:52.823Z,6.86
2023-10-02T15:28:28.496Z,6.80
2023-10-02T15:31:23.866Z,6.63
2023-10-02T15:33:58.378Z,6.70
2023-10-02T15:36:33.991Z,6.60
2023-10-02T15:39:13.286Z,6.55
2023-10-02T15:41:53.023Z,6.52
2023-10-02T15:44:23.349Z,6.55
2023-10-02T15:46:55.516Z,6.54
2023-10-02T15:49:27.386Z,6.54
2023-10-02T15:51:57.259Z,6.50
2023-10-02T15:54:27.615Z,6.27
2023-10-02T15:57:04.329Z,5.39
2023-10-02T15:59:33.848Z,6.23
2023-10-02T16:02:07.390Z,6.20
2023-10-02T16:04:37.286Z,6.14
2023-10-02T16:07:07.775Z,6.00
2023-10-02T16:09:42.799Z,5.96
2023-10-02T16:12:29.907Z,5.91
2023-10-02T16:14:59.665Z,5.91
2023-10-02T16:17:32.392Z,5.85
2023-10-02T16:20:08.264Z,5.74
2023-10-02T16:22:39.380Z,5.69
2023-10-02T16:25:14.192Z,5.87
2023-10-02T16:28:06.170Z,5.78
2023-10-02T16:30:38.160Z,5.79
2023-10-02T16:33:19.983Z,5.68
2023-10-02T16:36:05.292Z,5.67
2023-10-02T16:38:36.032Z,5.59
2023-10-02T16:41:12.494Z,5.52
2023-10-02T16:43:41.864Z,5.56
2023-10-02T16:46:13.908Z,5.47
2023-10-02T16:48:43.838Z,5.45
2023-10-02T16:51:19.657Z,5.47
2023-10-02T16:53:49.578Z,5.37
2023-10-02T16:56:20.958Z,5.49
2023-10-02T16:58:53.070Z,5.49
2023-10-02T17:01:25.096Z,5.53
2023-10-02T17:03:57.075Z,5.10
2023-10-02T17:06:28.811Z,5.42
2023-10-02T17:09:04.073Z,5.44
2023-10-02T17:11:38.842Z,5.59
2023-10-02T17:14:12.943Z,5.43
2023-10-02T17:16:42.376Z,5.43
2023-10-02T17:19:17.975Z,5.33
2023-10-02T17:21:49.950Z,5.35
2023-10-02T17:24:20.658Z,5.32
2023-10-02T17:26:54.946Z,5.30
2023-10-02T17:29:24.336Z,5.34
2023-10-02T17:31:54.901Z,5.36
2023-10-02T17:34:28.536Z,5.26
2023-10-02T17:36:57.997Z,5.28
2023-10-02T17:39:40.423Z,5.37
2023-10-02T17:42:09.638Z,5.32
2023-10-02T17:44:41.934Z,5.27
2023-10-02T17:47:13.320Z,5.31
2023-10-02T17:49:41.932Z,4.93
2023-10-02T17:52:14.367Z,5.21
2023-10-02T17:54:43.540Z,5.12
2023-10-02T17:57:19.226Z,5.16
2023-10-02T17:59:49.228Z,5.17
2023-10-02T18:02:23.994Z,5.25
2023-10-02T18:04:55.631Z,5.15
2023-10-02T18:07:30.174Z,5.03
2023-10-02T18:10:05.260Z,5.17
2023-10-02T18:12:36.227Z,5.02
2023-10-02T18:15:09.819Z,5.01
2023-10-02T18:17:39.389Z,4.90
2023-10-02T18:20:09.129Z,4.96
2023-10-02T18:22:39.021Z,4.94
2023-10-02T18:25:11.939Z,4.95
2023-10-02T18:27:41.839Z,5.00
2023-10-02T18:30:11.542Z,4.99
2023-10-02T18:32:45.737Z,4.80
2023-10-02T18:35:20.466Z,4.72
2023-10-02T18:37:52.477Z,4.71
2023-10-02T18:40:21.142Z,4.68
2023-10-02T18:42:49.910Z,4.64
2023-10-02T18:45:18.749Z,4.74
2023-10-02T18:47:47.832Z,4.66
2023-10-02T18:50:16.799Z,4.70
2023-10-02T18:52:48.516Z,4.66
2023-10-02T18:55:20.239Z,4.66
2023-10-02T18:57:49.361Z,4.63
2023-10-02T19:00:21.874Z,4.65
2023-10-02T19:02:50.846Z,4.68
2023-10-02T19:05:19.665Z,4.56
2023-10-02T19:07:54.242Z,4.59
2023-10-02T19:10:22.981Z,4.56
2023-10-02T19:12:52.242Z,4.50
2023-10-02T19:15:20.959Z,4.28
2023-10-02T19:17:49.863Z,4.31
2023-10-02T19:20:21.422Z,4.38
2023-10-02T19:22:50.538Z,4.22
2023-10-02T19:25:20.205Z,4.13
2023-10-02T19:27:49.351Z,4.12
2023-10-02T19:30:19.070Z,4.17
2023-10-02T19:32:47.760Z,4.02
2023-10-02T19:35:17.665Z,4.04
2023-10-02T19:37:46.725Z,4.12
2023-10-02T19:40:17.604Z,3.93
2023-10-02T19:42:46.136Z,3.92
2023-10-02T19:45:15.049Z,3.84
2023-10-02T19:47:45.478Z,3.85
2023-10-02T19:50:16.433Z,3.93
2023-10-02T19:52:45.201Z,3.73
2023-10-02T19:55:13.797Z,3.82
2023-10-02T19:57:42.523Z,3.80
2023-10-02T20:00:12.664Z,3.65
2023-10-02T20:02:44.889Z,3.68
2023-10-02T20:05:17.168Z,3.77
2023-10-02T20:07:51.426Z,3.71
2023-10-02T20:10:19.988Z,3.61
2023-10-02T20:12:50.025Z,3.53
2023-10-02T20:15:21.537Z,3.59
2023-10-02T20:17:50.667Z,3.61
2023-10-02T20:20:19.749Z,3.40
2023-10-02T20:22:48.918Z,3.52
2023-10-02T20:25:18.769Z,3.48
2023-10-02T20:27:47.527Z,3.47
2023-10-02T20:30:17.373Z,3.45
2023-10-02T20:32:46.783Z,3.29
2023-10-02T20:35:17.129Z,3.27
2023-10-02T20:37:48.407Z,2.83
2023-10-02T20:40:17.126Z,3.12
2023-10-02T20:42:45.784Z,3.16
2023-10-02T20:45:14.291Z,3.21
2023-10-02T20:47:43.242Z,3.14
2023-10-02T20:50:15.284Z,2.65
2023-10-02T20:52:43.906Z,2.86
2023-10-02T20:55:13.031Z,2.91
2023-10-02T20:57:42.214Z,2.82
2023-10-02T21:00:16.545Z,2.84
2023-10-02T21:02:50.551Z,2.79
2023-10-02T21:05:19.585Z,2.71
2023-10-02T21:07:47.954Z,2.69
2023-10-02T21:10:18.819Z,2.47
2023-10-02T21:12:49.315Z,2.14
2023-10-02T21:15:18.391Z,2.38
2023-10-02T21:17:47.631Z,2.43
2023-10-02T21:20:17.236Z,2.28
2023-10-02T21:22:49.448Z,2.21
2023-10-02T21:25:20.031Z,2.23
2023-10-02T21:27:49.254Z,2.34
2023-10-02T21:30:18.147Z,2.39
2023-10-02T21:32:47.341Z,2.37
2023-10-02T21:35:16.333Z,2.23
2023-10-02T21:37:45.104Z,2.41
2023-10-02T21:40:14.376Z,2.35
2023-10-02T21:42:44.028Z,2.36
2023-10-02T21:45:13.424Z,2.32
2023-10-02T21:47:42.391Z,2.33
2023-10-02T21:50:12.927Z,2.19
2023-10-02T21:52:41.683Z,2.18
2023-10-02T21:55:15.864Z,2.19
2023-10-02T21:57:47.205Z,2.02
2023-10-02T22:00:42.566Z,2.06
2023-10-02T22:03:11.719Z,2.07
2023-10-02T22:05:40.872Z,1.67
2023-10-02T22:08:09.834Z,2.04
2023-10-02T22:10:44.651Z,1.80
2023-10-02T22:13:15.123Z,2.01
2023-10-02T22:15:44.337Z,1.87
2023-10-02T22:18:14.229Z,1.89
2023-10-02T22:20:47.001Z,1.97
2023-10-02T22:23:16.711Z,1.59
2023-10-02T22:25:46.672Z,1.91
2023-10-02T22:28:15.546Z,1.93
2023-10-02T22:30:44.607Z,1.97
2023-10-02T22:33:14.105Z,1.77
2023-10-02T22:35:43.409Z,1.84
2023-10-02T22:38:16.697Z,1.69
2023-10-02T22:40:45.531Z,1.68
2023-10-02T22:43:15.205Z,1.47
2023-10-02T22:45:45.998Z,1.60
2023-10-02T22:48:17.778Z,1.45
2023-10-02T22:50:47.304Z,1.49
2023-10-02T22:53:16.410Z,1.48
2023-10-02T22:55:49.610Z,1.57
2023-10-02T22:58:19.222Z,0.26
2023-10-02T23:00:48.456Z,1.48
2023-10-02T23:03:18.223Z,1.06
2023-10-02T23:05:47.153Z,1.32
2023-10-02T23:08:16.770Z,1.31
2023-10-02T23:10:46.317Z,1.32
2023-10-02T23:13:18.228Z,1.37
2023-10-02T23:15:48.226Z,1.38
2023-10-02T23:18:17.145Z,1.17
2023-10-02T23:20:50.041Z,1.35
2023-10-02T23:23:19.326Z,1.33
2023-10-02T23:25:48.614Z,1.37
2023-10-02T23:28:18.268Z,1.35
2023-10-02T23:30:49.469Z,1.26
2023-10-02T23:33:19.034Z,1.25
2023-10-02T23:35:48.204Z,1.23
2023-10-02T23:38:18.341Z,0.90
2023-10-02T23:40:46.996Z,1.28
2023-10-02T23:43:16.089Z,1.33
2023-10-02T23:45:46.820Z,1.31
2023-10-02T23:48:15.727Z,1.16
2023-10-02T23:50:51.707Z,0.81
2023-10-02T23:53:26.366Z,1.22
2023-10-02T23:56:01.198Z,1.17
2023-10-02T23:58:30.265Z,1.17
